Time;durP1;ratioP1;P1;durP2;ratioP2;P2;SDS_P1;SDS_P2;PMS_P1;PMS_P2;Temp;Humidity;BMP_temperature;BMP_pressure;BME280_temperature;BME280_humidity;BME280_pressure;Samples;Min_cycle;Max_cycle;Signal;HPM_P1;HPM_P2
2022/03/31 00:00:18;;;;;;;0.30;0.20;;;;;;;3.97;66.95;100412.81;5025437;28;20037;-73
2022/03/31 00:02:45;;;;;;;1.77;0.45;;;;;;;3.90;66.77;100412.44;5024196;28;20505;-73
2022/03/31 00:05:11;;;;;;;1.05;0.30;;;;;;;3.92;67.79;100416.59;5025249;28;20115;-74
2022/03/31 00:07:54;;;;;;;0.88;0.40;;;;;;;3.94;68.17;100419.06;5021514;28;20709;-73
2022/03/31 00:10:37;;;;;;;1.25;0.40;;;;;;;3.89;69.91;100418.59;5025586;28;20057;-73
2022/03/31 00:13:05;;;;;;;1.20;0.40;;;;;;;3.68;71.85;100419.31;5019128;28;20057;-72
2022/03/31 00:15:32;;;;;;;1.75;0.57;;;;;;;3.62;73.03;100411.09;5021549;28;20386;-73
2022/03/31 00:18:01;;;;;;;6.20;1.20;;;;;;;3.63;75.46;100413.59;5023318;28;20057;-75
2022/03/31 00:20:27;;;;;;;3.38;0.75;;;;;;;3.67;76.13;100414.19;5021604;28;20063;-74
2022/03/31 00:22:52;;;;;;;5.30;1.38;;;;;;;3.67;77.29;100419.41;5028152;28;20041;-74
2022/03/31 00:25:18;;;;;;;1.77;0.98;;;;;;;3.62;78.49;100413.72;5005604;28;20037;-75
2022/03/31 00:27:44;;;;;;;2.05;1.30;;;;;;;3.61;79.00;100402.44;5028390;28;20111;-74
2022/03/31 00:30:11;;;;;;;3.05;1.73;;;;;;;3.59;80.46;100396.50;5017718;28;20029;-74
2022/03/31 00:32:38;;;;;;;2.95;1.40;;;;;;;3.67;80.17;100412.41;5026219;28;20032;-75
2022/03/31 00:35:05;;;;;;;3.95;1.48;;;;;;;3.57;81.40;100393.19;5026271;28;20212;-75
2022/03/31 00:37:30;;;;;;;3.30;1.90;;;;;;;3.44;81.95;100388.06;5016239;28;20427;-75
2022/03/31 00:39:56;;;;;;;3.53;1.58;;;;;;;3.56;82.79;100404.56;5011999;28;20053;-74
2022/03/31 00:42:22;;;;;;;2.90;1.48;;;;;;;3.59;82.74;100411.31;5021064;28;20025;-75
2022/03/31 00:44:47;;;;;;;4.53;1.70;;;;;;;3.51;83.99;100391.03;5026384;28;20421;-74
2022/03/31 00:47:13;;;;;;;2.47;1.48;;;;;;;3.46;83.37;100380.97;5017036;28;20025;-74
2022/03/31 00:49:38;;;;;;;2.35;1.40;;;;;;;3.52;84.05;100395.31;5012283;28;20056;-74
2022/03/31 00:52:05;;;;;;;4.38;2.00;;;;;;;3.55;84.11;100389.00;4998835;28;20109;-75
2022/03/31 00:54:32;;;;;;;1.98;1.23;;;;;;;3.48;84.11;100386.91;5026829;28;20053;-75
2022/03/31 00:57:00;;;;;;;4.65;1.50;;;;;;;3.56;84.37;100381.06;5024201;28;20033;-75
2022/03/31 00:59:26;;;;;;;5.25;1.67;;;;;;;3.56;84.92;100383.69;5024875;28;20037;-75
2022/03/31 01:01:53;;;;;;;5.00;1.65;;;;;;;3.41;85.78;100361.38;5022066;28;20037;-73
2022/03/31 01:04:18;;;;;;;3.50;1.50;;;;;;;3.50;86.01;100373.72;5012008;28;20038;-73
2022/03/31 01:06:44;;;;;;;3.47;1.88;;;;;;;3.48;86.72;100378.22;5026754;28;20630;-73
2022/03/31 01:09:12;;;;;;;2.40;1.67;;;;;;;3.39;87.07;100358.03;5025465;28;20244;-73
2022/03/31 01:11:38;;;;;;;3.83;1.77;;;;;;;3.40;86.53;100363.16;5026961;28;20025;-73
2022/03/31 01:14:04;;;;;;;5.07;1.95;;;;;;;3.43;87.84;100370.72;5024615;28;20124;-73
2022/03/31 01:16:30;;;;;;;3.22;2.15;;;;;;;3.24;87.92;100355.63;5027767;28;20033;-73
2022/03/31 01:18:57;;;;;;;4.85;2.95;;;;;;;3.37;88.91;100375.59;5014731;28;20529;-73
2022/03/31 01:21:22;;;;;;;5.72;2.72;;;;;;;3.32;88.77;100370.72;5010975;28;20069;-73
2022/03/31 01:23:48;;;;;;;5.82;2.55;;;;;;;3.32;89.53;100370.72;5025542;28;20116;-73
2022/03/31 01:26:13;;;;;;;4.15;2.10;;;;;;;3.24;90.87;100363.44;5016131;28;20061;-73
2022/03/31 01:28:42;;;;;;;3.78;2.50;;;;;;;3.23;91.01;100361.81;5013731;28;20471;-73
2022/03/31 01:31:09;;;;;;;4.95;3.17;;;;;;;3.17;90.51;100362.25;5020237;28;20500;-73
2022/03/31 01:33:34;;;;;;;5.03;2.45;;;;;;;3.09;90.69;100364.59;5024416;28;20022;-73
2022/03/31 01:36:01;;;;;;;3.17;2.38;;;;;;;3.03;91.09;100365.06;5027736;28;20044;-72
2022/03/31 01:38:27;;;;;;;3.35;2.50;;;;;;;2.99;92.31;100361.03;5023691;28;20029;-72
2022/03/31 01:40:53;;;;;;;4.43;2.47;;;;;;;2.88;92.33;100348.78;5006822;28;20492;-73
2022/03/31 01:43:20;;;;;;;3.88;2.33;;;;;;;2.94;92.02;100350.94;4994178;28;20030;-72
2022/03/31 01:45:45;;;;;;;4.45;3.08;;;;;;;2.97;92.95;100355.09;5019343;28;20124;-72
2022/03/31 01:48:12;;;;;;;4.60;3.25;;;;;;;2.96;93.52;100341.22;5025884;28;20472;-72
2022/03/31 01:50:37;;;;;;;5.68;3.53;;;;;;;3.01;92.77;100343.50;5001047;28;20124;-72
2022/03/31 01:53:03;;;;;;;4.28;3.08;;;;;;;2.94;93.27;100344.88;4986129;28;20420;-72
2022/03/31 01:55:28;;;;;;;6.10;3.47;;;;;;;2.96;93.12;100348.19;5022568;28;20091;-72
2022/03/31 01:57:55;;;;;;;5.97;3.22;;;;;;;2.85;93.68;100347.22;5023220;28;20014;-72
2022/03/31 02:00:20;;;;;;;3.63;2.58;;;;;;;2.89;94.82;100345.22;5026360;28;20195;-72
2022/03/31 02:02:45;;;;;;;5.22;2.95;;;;;;;2.91;94.56;100340.72;5024842;28;20128;-72
2022/03/31 02:05:11;;;;;;;4.85;3.28;;;;;;;2.81;95.13;100329.31;5021728;28;20026;-72
2022/03/31 02:07:38;;;;;;;4.35;2.70;;;;;;;2.89;95.63;100338.22;5014925;28;20105;-72
2022/03/31 02:10:07;;;;;;;5.05;2.83;;;;;;;2.92;95.27;100333.72;5022748;28;20026;-74
2022/03/31 02:12:34;;;;;;;4.18;2.75;;;;;;;2.95;95.50;100334.34;5020029;28;20049;-72
2022/03/31 02:15:00;;;;;;;4.18;3.35;;;;;;;3.04;95.03;100330.22;5028796;28;20033;-72
2022/03/31 02:17:25;;;;;;;4.38;2.78;;;;;;;2.97;95.36;100324.63;5023530;28;20046;-72
2022/03/31 02:19:51;;;;;;;4.65;2.80;;;;;;;2.96;95.30;100319.53;5019100;28;20072;-72
2022/03/31 02:22:17;;;;;;;3.90;2.58;;;;;;;3.00;94.82;100316.56;5010915;28;20486;-72
2022/03/31 02:24:43;;;;;;;2.88;2.35;;;;;;;3.09;94.64;100315.06;5019328;28;20461;-72
2022/03/31 02:27:08;;;;;;;4.32;2.00;;;;;;;3.08;93.65;100310.81;5021003;28;20035;-72
2022/03/31 02:29:34;;;;;;;2.78;2.05;;;;;;;3.09;93.20;100302.00;5000893;28;20409;-72
2022/03/31 02:32:00;;;;;;;6.13;2.75;;;;;;;2.98;93.64;100273.31;5016858;28;20041;-72
2022/03/31 02:34:25;;;;;;;2.50;2.15;;;;;;;3.07;93.29;100289.13;5026487;28;20547;-72
2022/03/31 02:36:50;;;;;;;4.22;2.80;;;;;;;3.13;93.58;100305.22;5021830;28;20048;-72
2022/03/31 02:39:16;;;;;;;4.88;2.80;;;;;;;3.07;93.62;100296.09;5022416;28;20036;-72
2022/03/31 02:41:42;;;;;;;3.33;2.13;;;;;;;3.11;94.48;100294.09;5014988;28;20075;-72
2022/03/31 02:44:08;;;;;;;3.25;2.63;;;;;;;3.03;94.62;100281.66;5015385;28;20528;-72
2022/03/31 02:46:34;;;;;;;2.83;1.75;;;;;;;2.96;94.54;100291.69;5024118;28;20021;-72
2022/03/31 02:49:00;;;;;;;2.90;2.10;;;;;;;2.75;95.60;100286.31;5026491;28;20021;-72
2022/03/31 02:51:26;;;;;;;2.03;1.80;;;;;;;2.66;95.64;100292.19;5019672;28;20034;-72
2022/03/31 02:56:37;;;;;;;1.67;1.42;;;;;;;2.55;97.15;100276.50;5023147;28;20107;-72
2022/03/31 02:59:04;;;;;;;2.10;1.65;;;;;;;2.62;96.61;100282.94;5025852;28;20072;-72
2022/03/31 03:01:30;;;;;;;5.82;1.98;;;;;;;2.57;97.91;100279.81;5014425;28;20033;-72
2022/03/31 03:03:56;;;;;;;3.03;1.83;;;;;;;2.55;97.54;100281.69;5021201;28;20465;-72
2022/03/31 03:06:21;;;;;;;2.22;1.60;;;;;;;2.50;97.55;100271.63;5015413;28;20435;-72
2022/03/31 03:08:47;;;;;;;2.15;1.67;;;;;;;2.47;98.07;100277.91;5016957;28;20030;-72
2022/03/31 03:11:15;;;;;;;2.63;1.70;;;;;;;2.32;98.27;100281.59;5025904;28;20074;-72
2022/03/31 03:13:40;;;;;;;3.60;2.15;;;;;;;2.30;99.25;100273.06;5020029;28;20124;-72
2022/03/31 03:16:08;;;;;;;1.98;1.77;;;;;;;2.25;99.35;100277.78;5010978;28;20557;-72
2022/03/31 03:18:34;;;;;;;2.80;2.33;;;;;;;2.02;100.00;100259.44;5017580;28;20436;-71
2022/03/31 03:21:00;;;;;;;3.45;2.50;;;;;;;2.06;100.00;100276.50;5012727;28;20029;-72
2022/03/31 03:23:25;;;;;;;4.15;2.80;;;;;;;2.11;100.00;100275.34;5026047;28;20224;-72
2022/03/31 03:25:51;;;;;;;3.03;2.47;;;;;;;2.04;100.00;100273.16;5015965;28;20038;-72
2022/03/31 03:28:16;;;;;;;4.32;2.92;;;;;;;2.08;100.00;100265.97;5020265;28;20064;-72
2022/03/31 03:30:41;;;;;;;2.80;2.22;;;;;;;1.91;100.00;100261.16;5020360;28;20026;-72
2022/03/31 03:33:07;;;;;;;2.30;1.88;;;;;;;1.90;100.00;100268.13;5016691;28;20513;-72
2022/03/31 03:35:32;;;;;;;4.07;1.80;;;;;;;1.85;100.00;100270.19;5010672;28;20522;-72
2022/03/31 03:37:58;;;;;;;3.10;2.35;;;;;;;1.74;100.00;100249.31;5023719;28;20141;-72
2022/03/31 03:40:25;;;;;;;3.50;1.92;;;;;;;1.81;100.00;100255.78;5017428;28;20029;-72
2022/03/31 03:42:50;;;;;;;4.68;1.98;;;;;;;1.79;100.00;100242.03;5011873;28;20655;-71
2022/03/31 03:45:16;;;;;;;3.33;1.80;;;;;;;1.75;100.00;100256.19;5019869;28;20026;-71
2022/03/31 03:47:43;;;;;;;3.58;1.85;;;;;;;1.70;100.00;100255.66;4998636;28;20048;-72
2022/03/31 03:50:09;;;;;;;2.80;1.67;;;;;;;1.79;100.00;100257.66;5023529;28;20393;-72
2022/03/31 03:52:35;;;;;;;3.33;2.30;;;;;;;1.73;100.00;100255.47;5020973;28;20033;-71
2022/03/31 03:55:00;;;;;;;3.47;1.77;;;;;;;1.74;100.00;100247.56;5022525;28;20028;-71
2022/03/31 03:57:26;;;;;;;3.50;1.73;;;;;;;1.77;100.00;100247.34;5023110;28;20489;-71
2022/03/31 03:59:52;;;;;;;6.00;1.90;;;;;;;1.68;100.00;100254.94;5020878;28;20476;-72
2022/03/31 04:02:17;;;;;;;3.95;1.77;;;;;;;1.68;100.00;100248.00;5022818;28;20558;-71
2022/03/31 04:04:43;;;;;;;2.65;1.90;;;;;;;1.63;100.00;100245.72;5016602;28;20065;-71
2022/03/31 04:07:08;;;;;;;3.80;2.28;;;;;;;1.62;100.00;100231.03;5019321;28;20045;-72
2022/03/31 04:09:34;;;;;;;2.60;1.60;;;;;;;1.76;100.00;100245.66;5015813;28;20076;-72
2022/03/31 04:11:59;;;;;;;4.82;2.13;;;;;;;1.67;100.00;100232.50;5021226;28;20076;-72
2022/03/31 04:14:24;;;;;;;4.32;2.03;;;;;;;1.76;100.00;100240.47;5015854;28;20034;-72
2022/03/31 04:16:50;;;;;;;2.72;1.85;;;;;;;1.65;100.00;100224.78;5010794;28;20084;-72
2022/03/31 04:19:16;;;;;;;3.53;1.67;;;;;;;1.71;100.00;100231.34;5011256;28;20085;-71
2022/03/31 04:21:41;;;;;;;2.90;1.90;;;;;;;1.85;100.00;100232.03;5021728;28;20761;-71
2022/03/31 04:24:07;;;;;;;3.08;1.85;;;;;;;1.85;100.00;100236.38;5014558;28;20083;-71
2022/03/31 04:26:33;;;;;;;4.13;1.67;;;;;;;1.89;100.00;100224.00;5018805;28;20030;-71
2022/03/31 04:29:01;;;;;;;3.08;2.33;;;;;;;1.94;100.00;100230.53;5009633;28;20041;-71
2022/03/31 04:31:26;;;;;;;4.07;1.70;;;;;;;1.92;100.00;100232.41;5004252;28;20037;-71
2022/03/31 04:33:52;;;;;;;5.95;1.92;;;;;;;1.90;100.00;100229.09;5018006;28;20030;-71
2022/03/31 04:36:18;;;;;;;2.50;1.88;;;;;;;1.99;100.00;100233.63;5016991;28;20037;-71
2022/03/31 04:38:45;;;;;;;4.80;2.20;;;;;;;1.97;100.00;100229.47;5017596;28;20496;-72
2022/03/31 04:41:11;;;;;;;2.72;2.00;;;;;;;1.88;100.00;100209.34;5019880;28;20141;-72
2022/03/31 04:43:36;;;;;;;2.60;2.17;;;;;;;2.01;100.00;100234.34;5012101;28;20121;-72
2022/03/31 04:46:01;;;;;;;3.45;2.30;;;;;;;2.05;100.00;100233.19;5018931;28;20116;-72
2022/03/31 04:48:29;;;;;;;2.72;1.85;;;;;;;1.87;100.00;100205.88;5017231;28;20567;-72
2022/03/31 04:50:54;;;;;;;2.67;1.77;;;;;;;2.01;100.00;100226.53;5018671;28;20049;-72
2022/03/31 04:53:20;;;;;;;2.50;1.90;;;;;;;2.06;100.00;100229.63;5014714;28;20033;-73
2022/03/31 04:55:45;;;;;;;2.95;2.45;;;;;;;2.12;100.00;100230.97;5013709;28;20029;-71
2022/03/31 04:58:11;;;;;;;3.72;1.95;;;;;;;2.08;100.00;100232.16;5017362;28;20033;-71
2022/03/31 05:00:37;;;;;;;3.15;2.25;;;;;;;2.14;100.00;100241.28;5017199;28;20041;-71
2022/03/31 05:03:02;;;;;;;3.60;3.17;;;;;;;2.07;100.00;100235.69;5014188;28;20038;-71
2022/03/31 05:05:28;;;;;;;3.22;2.45;;;;;;;2.12;100.00;100249.22;5018330;28;20048;-71
2022/03/31 05:07:53;;;;;;;3.28;2.47;;;;;;;2.13;100.00;100248.25;5017662;28;20065;-72
2022/03/31 05:10:19;;;;;;;3.22;2.92;;;;;;;2.10;100.00;100247.66;5019913;28;20029;-71
2022/03/31 05:12:44;;;;;;;2.90;2.58;;;;;;;2.04;100.00;100241.94;5019517;28;20037;-71
2022/03/31 05:15:11;;;;;;;3.30;2.60;;;;;;;2.10;100.00;100239.84;5010259;28;20064;-72
2022/03/31 05:17:37;;;;;;;3.25;2.63;;;;;;;1.97;100.00;100245.94;5018155;28;20084;-71
2022/03/31 05:20:05;;;;;;;3.15;2.80;;;;;;;1.88;100.00;100220.56;5015675;28;20120;-72
2022/03/31 05:22:30;;;;;;;3.22;2.72;;;;;;;1.99;100.00;100245.81;5014837;28;20113;-71
2022/03/31 05:24:55;;;;;;;4.30;3.35;;;;;;;1.97;100.00;100240.72;5014124;28;20120;-72
2022/03/31 05:27:21;;;;;;;3.35;3.05;;;;;;;1.96;100.00;100240.81;5017339;28;20041;-71
2022/03/31 05:29:46;;;;;;;5.38;3.80;;;;;;;1.96;100.00;100241.69;5016570;28;20042;-72
2022/03/31 05:32:12;;;;;;;5.07;3.35;;;;;;;2.00;100.00;100245.72;5010025;28;20045;-72
2022/03/31 05:34:37;;;;;;;4.45;3.47;;;;;;;2.01;100.00;100230.94;5008898;28;20041;-72
2022/03/31 05:37:04;;;;;;;4.70;3.20;;;;;;;1.99;100.00;100228.44;5010425;28;20037;-71
2022/03/31 05:39:32;;;;;;;5.20;3.50;;;;;;;1.99;100.00;100233.63;5013547;28;20042;-70
2022/03/31 05:41:57;;;;;;;4.70;4.00;;;;;;;1.94;100.00;100238.34;5009371;28;20029;-73
2022/03/31 05:44:23;;;;;;;3.78;3.05;;;;;;;1.77;100.00;100202.28;5012596;28;20038;-72
2022/03/31 05:46:49;;;;;;;5.80;3.40;;;;;;;1.82;100.00;100215.78;5011693;28;20038;-73
2022/03/31 05:49:15;;;;;;;4.30;3.20;;;;;;;1.75;100.00;100209.38;5010134;28;20034;-73
2022/03/31 05:51:40;;;;;;;4.18;3.38;;;;;;;1.86;100.00;100240.66;5013967;28;20033;-74
2022/03/31 05:54:06;;;;;;;4.03;3.30;;;;;;;1.69;100.00;100209.81;5011489;28;20037;-73
2022/03/31 05:56:32;;;;;;;4.40;3.65;;;;;;;1.79;100.00;100229.84;4997926;28;20041;-75
2022/03/31 05:58:57;;;;;;;4.00;3.30;;;;;;;1.63;100.00;100211.06;5013001;28;20026;-75
2022/03/31 06:01:23;;;;;;;5.60;3.78;;;;;;;1.76;100.00;100239.63;5011022;28;20029;-76
2022/03/31 06:03:48;;;;;;;4.32;2.97;;;;;;;1.73;100.00;100221.66;5015007;28;20041;-75
2022/03/31 06:06:14;;;;;;;5.22;4.15;;;;;;;1.73;100.00;100232.06;5012610;28;20405;-75
2022/03/31 06:08:39;;;;;;;4.13;3.28;;;;;;;1.60;100.00;100212.09;5014511;28;20204;-75
2022/03/31 06:11:05;;;;;;;4.35;3.72;;;;;;;1.71;100.00;100233.94;4999924;28;20037;-75
2022/03/31 06:13:30;;;;;;;4.47;3.80;;;;;;;1.87;100.00;100242.31;5015255;28;20040;-75
2022/03/31 06:15:56;;;;;;;5.22;4.30;;;;;;;1.90;100.00;100247.31;5010563;28;20065;-75
2022/03/31 06:18:23;;;;;;;6.35;4.05;;;;;;;1.90;100.00;100236.06;5014778;28;20052;-76
2022/03/31 06:20:48;;;;;;;4.78;3.95;;;;;;;1.72;100.00;100214.78;5014203;28;20045;-76
2022/03/31 06:23:14;;;;;;;5.70;4.45;;;;;;;1.92;100.00;100236.81;5001339;28;20133;-76
2022/03/31 06:25:42;;;;;;;5.82;4.15;;;;;;;1.74;100.00;100241.50;5013230;28;20045;-76
2022/03/31 06:28:09;;;;;;;5.63;3.75;;;;;;;1.76;100.00;100237.84;5011268;28;20038;-76
2022/03/31 06:30:34;;;;;;;6.07;4.07;;;;;;;1.91;100.00;100246.34;5013619;28;20060;-76
2022/03/31 06:33:00;;;;;;;5.97;4.05;;;;;;;1.73;100.00;100224.25;5009841;28;20565;-75
2022/03/31 06:35:25;;;;;;;4.95;3.92;;;;;;;1.75;100.00;100245.78;5013909;28;20042;-76
2022/03/31 06:37:51;;;;;;;8.23;4.57;;;;;;;1.84;100.00;100251.16;5010475;28;20100;-76
2022/03/31 06:40:18;;;;;;;6.88;4.65;;;;;;;1.87;100.00;100255.31;5008133;28;20079;-76
2022/03/31 06:42:45;;;;;;;7.00;4.88;;;;;;;1.76;100.00;100248.25;5015925;28;20014;-75
2022/03/31 06:45:15;;;;;;;6.57;4.43;;;;;;;1.85;100.00;100262.41;4997988;28;20470;-76
2022/03/31 06:47:44;;;;;;;7.20;4.90;;;;;;;1.76;100.00;100263.88;4999607;28;20051;-75
2022/03/31 06:50:11;;;;;;;5.32;3.95;;;;;;;1.64;100.00;100260.38;5016668;28;20435;-75
2022/03/31 06:52:37;;;;;;;5.15;4.18;;;;;;;1.51;100.00;100262.16;5013532;28;20029;-76
2022/03/31 06:55:03;;;;;;;5.57;4.32;;;;;;;1.55;100.00;100229.81;5015354;28;20107;-75
2022/03/31 06:57:28;;;;;;;6.10;4.65;;;;;;;1.71;100.00;100265.97;5012553;28;20018;-76
2022/03/31 06:59:54;;;;;;;7.53;5.65;;;;;;;1.49;100.00;100225.03;5009558;28;20060;-76
2022/03/31 07:02:19;;;;;;;6.90;5.32;;;;;;;1.55;100.00;100229.00;5017439;28;20045;-76
2022/03/31 07:04:44;;;;;;;6.03;3.90;;;;;;;1.74;100.00;100249.31;5000148;28;20402;-75
2022/03/31 07:07:10;;;;;;;6.85;4.13;;;;;;;1.81;100.00;100266.19;5015373;28;20160;-75
2022/03/31 07:09:35;;;;;;;7.82;5.10;;;;;;;1.64;100.00;100262.97;5015228;28;20041;-75
2022/03/31 07:12:01;;;;;;;7.05;5.07;;;;;;;1.60;100.00;100237.28;4997924;28;20030;-75
2022/03/31 07:14:26;;;;;;;9.20;5.97;;;;;;;1.81;100.00;100258.38;5013851;28;20037;-75
2022/03/31 07:16:51;;;;;;;8.02;5.00;;;;;;;1.74;100.00;100264.94;5010617;28;20041;-75
2022/03/31 07:19:17;;;;;;;6.95;5.00;;;;;;;1.74;100.00;100270.13;5015522;28;20510;-75
2022/03/31 07:21:42;;;;;;;9.05;6.05;;;;;;;1.62;100.00;100262.25;5013036;28;20111;-76
2022/03/31 07:24:08;;;;;;;8.10;5.03;;;;;;;1.71;100.00;100278.16;5011937;28;20080;-75
2022/03/31 07:26:33;;;;;;;10.20;6.50;;;;;;;1.73;100.00;100278.88;5014355;28;20029;-75
2022/03/31 07:28:59;;;;;;;9.18;7.15;;;;;;;1.68;100.00;100276.63;5013994;28;20034;-75
2022/03/31 07:31:28;;;;;;;7.70;5.68;;;;;;;1.70;100.00;100263.47;5015155;28;20124;-76
2022/03/31 07:33:54;;;;;;;10.27;6.35;;;;;;;1.72;100.00;100272.88;5011785;28;20100;-76
2022/03/31 07:36:19;;;;;;;8.30;6.03;;;;;;;1.88;100.00;100271.78;5014158;28;20110;-76
2022/03/31 07:38:48;;;;;;;7.35;5.35;;;;;;;1.70;100.00;100259.13;5002921;28;20071;-76
2022/03/31 07:41:16;;;;;;;8.40;5.88;;;;;;;1.75;100.00;100261.41;5017604;28;20045;-76
2022/03/31 07:43:42;;;;;;;8.85;5.97;;;;;;;1.78;100.00;100255.97;5030032;28;20402;-76
2022/03/31 07:46:08;;;;;;;8.50;5.28;;;;;;;1.73;100.00;100268.47;5012900;28;20095;-76
2022/03/31 07:48:33;;;;;;;8.55;5.63;;;;;;;1.57;100.00;100237.53;5010984;28;20069;-76
2022/03/31 07:50:59;;;;;;;5.95;3.75;;;;;;;1.75;100.00;100267.44;5010626;28;20059;-76
2022/03/31 07:53:32;;;;;;;6.70;4.95;;;;;;;1.80;100.00;100269.72;5009833;28;20020;-75
2022/03/31 07:56:02;;;;;;;5.35;3.90;;;;;;;1.67;100.00;100250.69;5014605;28;20030;-75
2022/03/31 07:58:28;;;;;;;6.25;5.03;;;;;;;1.63;100.00;100248.31;5012195;28;20494;-75
2022/03/31 08:00:54;;;;;;;7.03;4.93;;;;;;;1.67;100.00;100253.28;5010930;28;20336;-75
2022/03/31 08:03:19;;;;;;;5.15;3.55;;;;;;;1.74;100.00;100264.94;5014762;28;20477;-75
2022/03/31 08:05:46;;;;;;;8.68;5.18;;;;;;;1.83;100.00;100266.91;5013487;28;20048;-75
2022/03/31 08:08:11;;;;;;;7.70;4.97;;;;;;;1.77;100.00;100262.13;5011274;28;20063;-76
2022/03/31 08:10:37;;;;;;;5.38;3.92;;;;;;;1.67;100.00;100280.13;5020995;28;20033;-75
2022/03/31 08:13:03;;;;;;;5.18;3.40;;;;;;;1.64;100.00;100282.97;5018873;28;20125;-76
2022/03/31 08:15:28;;;;;;;7.57;5.00;;;;;;;1.51;100.00;100275.16;5013978;28;20390;-76
2022/03/31 08:17:53;;;;;;;6.88;4.22;;;;;;;1.52;100.00;100279.41;5016053;28;20060;-73
2022/03/31 08:20:19;;;;;;;7.60;4.70;;;;;;;1.68;100.00;100286.16;5016396;28;20084;-71
2022/03/31 08:22:46;;;;;;;6.63;4.97;;;;;;;1.53;100.00;100280.28;5018261;28;20500;-76
2022/03/31 08:25:13;;;;;;;7.20;4.13;;;;;;;1.40;100.00;100280.28;5021258;28;20029;-76
2022/03/31 08:27:39;;;;;;;6.85;4.70;;;;;;;1.31;100.00;100283.53;5018812;28;20028;-75
2022/03/31 08:30:10;;;;;;;5.68;4.47;;;;;;;1.32;100.00;100265.19;5019624;28;20044;-75
2022/03/31 08:32:39;;;;;;;6.25;4.03;;;;;;;1.31;100.00;100260.13;5018470;28;20033;-76
2022/03/31 08:35:06;;;;;;;5.70;4.18;;;;;;;1.46;100.00;100287.66;5019308;28;20089;-76
2022/03/31 08:37:32;;;;;;;4.95;3.63;;;;;;;1.46;100.00;100287.66;5017716;28;20506;-76
2022/03/31 08:39:57;;;;;;;5.20;3.85;;;;;;;1.48;100.00;100290.13;5013155;28;20088;-77
2022/03/31 08:42:23;;;;;;;5.78;3.95;;;;;;;1.34;100.00;100289.31;5018638;28;20026;-75
2022/03/31 08:44:52;;;;;;;4.20;3.00;;;;;;;1.22;100.00;100291.00;5021259;28;20048;-75
2022/03/31 08:47:20;;;;;;;5.35;3.80;;;;;;;1.19;100.00;100288.59;5018586;28;20488;-75
2022/03/31 08:49:46;;;;;;;3.45;2.88;;;;;;;0.98;100.00;100267.50;5018389;28;20374;-75
2022/03/31 08:52:12;;;;;;;4.50;3.30;;;;;;;1.13;100.00;100277.78;4998151;28;20030;-75
2022/03/31 08:54:39;;;;;;;5.30;3.40;;;;;;;1.27;100.00;100293.28;5015310;28;20370;-75
2022/03/31 08:57:05;;;;;;;4.53;3.70;;;;;;;1.09;100.00;100279.75;5013333;28;20026;-76
2022/03/31 08:59:30;;;;;;;3.85;2.72;;;;;;;1.07;100.00;100279.03;5004355;28;20026;-76
2022/03/31 09:01:56;;;;;;;4.43;2.63;;;;;;;0.97;100.00;100275.38;5015966;28;20033;-75
2022/03/31 09:04:22;;;;;;;3.80;2.70;;;;;;;1.00;100.00;100302.00;4993720;28;20048;-75
2022/03/31 09:06:49;;;;;;;4.85;2.97;;;;;;;0.89;100.00;100303.63;5018240;28;20033;-75
2022/03/31 09:09:16;;;;;;;3.75;2.97;;;;;;;0.57;100.00;100320.38;5017973;28;20033;-75
2022/03/31 09:11:45;;;;;;;3.67;2.53;;;;;;;0.64;100.00;100313.03;5014165;28;20445;-75
2022/03/31 09:14:10;;;;;;;3.25;2.45;;;;;;;0.71;100.00;100319.50;5017009;28;20033;-75
2022/03/31 09:16:41;;;;;;;5.18;3.83;;;;;;;0.63;100.00;100321.75;5015924;28;20041;-75
2022/03/31 09:19:15;;;;;;;5.97;3.28;;;;;;;0.51;100.00;100294.00;5018039;28;20377;-75
2022/03/31 09:21:51;;;;;;;3.80;3.28;;;;;;;0.61;100.00;100326.22;5016698;28;20045;-75
2022/03/31 09:24:18;;;;;;;4.30;3.58;;;;;;;0.52;100.00;100312.06;5015101;28;20100;-75
2022/03/31 09:26:48;;;;;;;3.95;3.13;;;;;;;0.60;100.00;100324.53;5016791;28;20029;-75
2022/03/31 09:29:15;;;;;;;4.00;2.88;;;;;;;0.61;100.00;100331.44;5016142;28;20034;-75
2022/03/31 09:31:41;;;;;;;5.35;3.42;;;;;;;0.42;100.00;100315.34;5013114;28;20394;-75
2022/03/31 09:34:08;;;;;;;5.20;3.92;;;;;;;0.57;100.00;100315.19;5019843;28;20057;-75
2022/03/31 09:36:35;;;;;;;4.63;3.35;;;;;;;0.45;100.00;100294.38;5017831;28;20034;-75
2022/03/31 09:39:07;;;;;;;6.00;3.70;;;;;;;0.51;100.00;100318.19;5017970;28;20071;-76
2022/03/31 09:41:38;;;;;;;4.80;2.97;;;;;;;0.57;100.00;100324.75;5018845;28;20085;-75
2022/03/31 09:44:07;;;;;;;4.90;3.05;;;;;;;0.45;100.00;100307.34;5015831;28;20022;-75
2022/03/31 09:46:36;;;;;;;6.18;4.20;;;;;;;0.56;100.00;100329.09;5015966;28;20095;-75
2022/03/31 09:49:17;;;;;;;4.03;2.35;;;;;;;0.22;100.00;100296.69;5016016;28;20493;-76
2022/03/31 09:51:51;;;;;;;5.50;4.25;;;;;;;0.56;100.00;100323.06;5020525;28;20056;-75
2022/03/31 09:54:17;;;;;;;4.60;3.42;;;;;;;0.53;100.00;100333.66;5015727;28;20545;-75
2022/03/31 09:56:43;;;;;;;4.38;2.85;;;;;;;0.38;100.00;100325.09;5018368;28;20030;-75
2022/03/31 09:59:11;;;;;;;3.42;2.85;;;;;;;0.38;100.00;100314.72;5016779;28;20164;-76
2022/03/31 10:01:39;;;;;;;4.47;2.90;;;;;;;0.47;100.00;100323.66;5014717;28;20030;-75
2022/03/31 10:04:06;;;;;;;5.60;4.13;;;;;;;0.45;100.00;100328.13;5014701;28;20064;-76
2022/03/31 10:06:42;;;;;;;4.45;3.60;;;;;;;0.51;100.00;100338.13;5014181;28;20466;-76
2022/03/31 10:09:09;;;;;;;8.30;3.40;;;;;;;0.37;100.00;100334.66;5025603;28;20525;-76
2022/03/31 10:11:40;;;;;;;4.88;2.90;;;;;;;0.43;100.00;100337.78;5017273;28;20030;-76
2022/03/31 10:14:17;;;;;;;4.85;3.50;;;;;;;0.15;100.00;100339.50;5016325;28;20026;-76
2022/03/31 10:16:51;;;;;;;3.15;2.85;;;;;;;0.03;100.00;100341.09;5020089;28;20881;-77
2022/03/31 10:19:36;;;;;;;4.75;3.72;;;;;;;0.10;100.00;100352.75;5014282;28;20050;-77
2022/03/31 10:24:41;;;;;;;3.97;3.55;;;;;;;-0.02;100.00;100338.81;5014726;28;20038;-77
2022/03/31 10:24:59;;;;;;;11.60;4.03;;;;;;;0.00;100.00;100341.31;5013999;28;20046;-77
2022/03/31 10:27:30;;;;;;;5.20;3.10;;;;;;;-0.01;100.00;100356.03;5012678;28;20032;-76
2022/03/31 10:30:07;;;;;;;6.78;3.67;;;;;;;0.01;100.00;100361.13;5014066;28;20485;-76
2022/03/31 10:32:33;;;;;;;6.95;4.20;;;;;;;-0.05;100.00;100344.16;5017892;28;20584;-76
2022/03/31 10:34:59;;;;;;;8.68;4.82;;;;;;;-0.02;100.00;100336.22;5010745;28;20034;-76
2022/03/31 10:37:37;;;;;;;4.53;3.75;;;;;;;0.07;100.00;100357.34;4993629;28;20028;-76
2022/03/31 10:40:09;;;;;;;5.07;3.90;;;;;;;-0.03;100.00;100350.09;5017289;28;20082;-76
2022/03/31 10:42:36;;;;;;;8.20;4.03;;;;;;;-0.17;100.00;100338.88;5013712;28;20017;-76
2022/03/31 10:45:03;;;;;;;6.30;4.63;;;;;;;-0.09;100.00;100347.88;5015043;28;20033;-76
2022/03/31 10:47:34;;;;;;;7.13;4.22;;;;;;;-0.07;100.00;100361.56;5013275;28;20089;-76
2022/03/31 10:49:59;;;;;;;7.90;4.00;;;;;;;-0.13;100.00;100346.41;5010062;28;20108;-76
2022/03/31 10:52:25;;;;;;;9.73;4.63;;;;;;;-0.21;100.00;100330.47;5007279;28;20183;-76
2022/03/31 10:54:51;;;;;;;7.40;4.63;;;;;;;-0.21;100.00;100333.06;5008034;28;20048;-76
2022/03/31 10:57:18;;;;;;;4.93;3.65;;;;;;;-0.09;100.00;100347.88;5011133;28;20429;-76
2022/03/31 10:59:46;;;;;;;6.25;4.68;;;;;;;-0.15;100.00;100335.31;5027383;28;20385;-76
2022/03/31 11:02:14;;;;;;;4.57;3.47;;;;;;;-0.29;100.00;100324.91;5011093;28;20038;-77
2022/03/31 11:04:51;;;;;;;5.85;3.90;;;;;;;-0.35;100.00;100307.97;5021108;28;20032;-76
2022/03/31 11:07:22;;;;;;;5.82;3.50;;;;;;;-0.22;100.00;100326.19;5012485;28;20029;-76
2022/03/31 11:09:48;;;;;;;8.52;4.00;;;;;;;-0.16;100.00;100341.41;5008743;28;20018;-76
2022/03/31 11:12:22;;;;;;;6.60;4.70;;;;;;;-0.20;100.00;100342.50;5013543;28;20044;-77
2022/03/31 11:14:59;;;;;;;5.28;3.97;;;;;;;-0.14;100.00;100339.53;5010699;28;20057;-77
2022/03/31 11:17:25;;;;;;;6.30;3.90;;;;;;;-0.12;100.00;100332.50;5018581;28;20485;-76
2022/03/31 11:19:53;;;;;;;4.97;3.60;;;;;;;-0.06;100.00;100345.09;5004466;28;20334;-77
2022/03/31 11:22:20;;;;;;;6.70;4.15;;;;;;;-0.08;100.00;100333.97;5013883;28;20029;-77
2022/03/31 11:24:46;;;;;;;6.93;4.57;;;;;;;-0.17;100.00;100324.19;5012921;28;20045;-77
2022/03/31 11:27:11;;;;;;;6.40;4.53;;;;;;;-0.13;100.00;100335.19;5012933;28;20493;-77